Time;durP1;ratioP1;P1;durP2;ratioP2;P2;SDS_P1;SDS_P2;PMS_P1;PMS_P2;Temp;Humidity;BMP_temperature;BMP_pressure;BME280_temperature;BME280_humidity;BME280_pressure;Samples;Min_cycle;Max_cycle;Signal;HPM_P1;HPM_P2
2024/03/15 00:02:03;;;;;;;15.67;5.33;;;10.10;99.90;;;;;;5060954;28;20472;-71
2024/03/15 00:04:32;;;;;;;13.00;5.10;;;10.00;99.90;;;;;;5062475;28;20893;-69
2024/03/15 00:07:01;;;;;;;10.07;5.23;;;9.90;99.90;;;;;;5054871;28;20436;-70
2024/03/15 00:09:29;;;;;;;11.67;5.50;;;10.00;99.90;;;;;;5061932;28;20471;-69
2024/03/15 00:11:59;;;;;;;11.87;5.80;;;9.80;99.90;;;;;;5055425;28;20841;-70
2024/03/15 00:14:27;;;;;;;10.27;4.60;;;9.70;99.90;;;;;;5044185;28;20476;-70
2024/03/15 00:16:56;;;;;;;11.87;6.00;;;9.60;99.90;;;;;;5057642;28;20924;-70
2024/03/15 00:19:24;;;;;;;12.27;5.50;;;9.60;99.90;;;;;;5045369;28;20988;-71
2024/03/15 00:21:53;;;;;;;11.50;5.40;;;9.40;99.90;;;;;;5061177;28;20858;-70
2024/03/15 00:24:21;;;;;;;18.60;6.60;;;9.20;99.90;;;;;;5045576;28;20487;-70
2024/03/15 00:26:49;;;;;;;13.03;5.50;;;9.10;99.90;;;;;;5049463;28;20568;-70
2024/03/15 00:29:17;;;;;;;11.50;5.03;;;9.00;99.90;;;;;;5048950;28;21069;-70
2024/03/15 00:31:45;;;;;;;12.80;5.70;;;8.90;99.90;;;;;;5064988;28;20980;-69
2024/03/15 00:34:14;;;;;;;14.47;6.00;;;8.80;99.90;;;;;;5049585;28;20467;-69
2024/03/15 00:36:42;;;;;;;11.83;5.87;;;8.70;99.90;;;;;;5048874;28;20452;-70
2024/03/15 00:39:11;;;;;;;12.53;5.17;;;8.60;99.90;;;;;;5049489;28;20506;-70
2024/03/15 00:41:39;;;;;;;13.33;6.00;;;8.50;99.90;;;;;;5047692;28;20536;-70
2024/03/15 00:44:07;;;;;;;10.90;5.60;;;8.50;99.90;;;;;;5048816;28;20483;-70
2024/03/15 00:46:35;;;;;;;14.63;5.97;;;8.50;99.90;;;;;;5048613;28;20466;-71
2024/03/15 00:49:03;;;;;;;10.90;5.70;;;8.50;99.90;;;;;;5048816;28;20451;-70
2024/03/15 00:51:31;;;;;;;12.23;6.10;;;8.70;99.90;;;;;;5045508;28;20561;-70
2024/03/15 00:53:59;;;;;;;11.60;6.07;;;8.80;99.90;;;;;;5048239;28;20815;-70
2024/03/15 00:56:28;;;;;;;11.50;5.40;;;8.90;99.90;;;;;;5049736;28;20449;-69
2024/03/15 00:58:56;;;;;;;11.17;5.40;;;8.90;99.90;;;;;;5049174;28;20530;-69
2024/03/15 01:01:24;;;;;;;12.30;5.73;;;8.80;99.90;;;;;;5043934;28;20506;-70
2024/03/15 01:03:53;;;;;;;13.57;5.87;;;8.70;99.90;;;;;;5048579;28;20558;-70
2024/03/15 01:06:21;;;;;;;12.20;5.27;;;8.80;99.90;;;;;;5048824;28;20454;-69
2024/03/15 01:08:51;;;;;;;10.63;4.80;;;8.90;99.90;;;;;;5049295;28;20438;-70
2024/03/15 01:11:19;;;;;;;11.80;4.70;;;9.00;99.90;;;;;;5048297;28;20473;-70
2024/03/15 01:13:48;;;;;;;11.00;4.33;;;9.10;99.90;;;;;;5048105;28;20428;-70
2024/03/15 01:16:16;;;;;;;10.10;5.20;;;9.20;99.90;;;;;;5048232;28;20493;-70
2024/03/15 01:18:44;;;;;;;12.60;5.00;;;9.30;99.90;;;;;;5078761;28;20517;-69
2024/03/15 01:21:12;;;;;;;10.23;4.37;;;9.40;99.90;;;;;;5047718;28;20501;-70
2024/03/15 01:23:40;;;;;;;9.90;5.27;;;9.40;99.90;;;;;;5047995;28;20493;-70
2024/03/15 01:26:08;;;;;;;9.40;5.07;;;9.40;99.90;;;;;;5047289;28;20528;-70
2024/03/15 01:28:37;;;;;;;10.63;4.70;;;9.60;99.90;;;;;;5059668;28;20448;-70
2024/03/15 01:31:05;;;;;;;10.43;4.93;;;9.40;99.90;;;;;;5046612;28;20471;-70
2024/03/15 01:33:33;;;;;;;10.70;5.33;;;9.40;99.90;;;;;;5048599;28;20457;-70
2024/03/15 01:36:01;;;;;;;9.53;4.70;;;9.40;99.90;;;;;;5043438;28;20454;-71
2024/03/15 01:38:31;;;;;;;10.67;5.23;;;9.50;99.90;;;;;;5078866;28;20467;-69
2024/03/15 01:40:59;;;;;;;11.37;4.77;;;9.40;99.90;;;;;;5049495;28;20843;-71
2024/03/15 01:43:27;;;;;;;12.30;5.17;;;9.40;99.90;;;;;;5045529;28;20971;-72
2024/03/15 01:45:56;;;;;;;11.53;4.90;;;9.40;99.90;;;;;;5049492;28;20447;-71
2024/03/15 01:48:24;;;;;;;14.60;4.33;;;9.40;99.90;;;;;;5048799;28;21037;-70
2024/03/15 01:50:52;;;;;;;8.90;4.40;;;9.50;99.90;;;;;;5047832;28;20843;-70
2024/03/15 01:53:20;;;;;;;12.20;4.57;;;9.60;99.90;;;;;;5062919;28;20509;-71
2024/03/15 01:55:48;;;;;;;10.83;4.20;;;9.70;99.90;;;;;;5065004;28;20470;-70
2024/03/15 01:58:16;;;;;;;9.80;4.50;;;9.70;99.90;;;;;;5064816;28;20855;-70
2024/03/15 02:00:46;;;;;;;9.70;4.70;;;9.60;99.90;;;;;;5047998;28;20562;-71
2024/03/15 02:03:14;;;;;;;9.30;4.73;;;9.50;99.90;;;;;;5046593;28;20463;-70
2024/03/15 02:05:43;;;;;;;12.60;4.37;;;9.40;99.90;;;;;;5067043;28;20502;-70
2024/03/15 02:08:17;;;;;;;12.97;5.33;;;9.50;99.90;;;;;;5046879;28;21071;-70
2024/03/15 02:10:46;;;;;;;12.50;4.20;;;9.50;99.90;;;;;;5055087;28;20494;-70
2024/03/15 02:13:15;;;;;;;14.23;4.50;;;9.40;99.90;;;;;;5046833;28;20446;-70
2024/03/15 02:15:43;;;;;;;10.13;4.73;;;9.30;99.90;;;;;;5050854;28;20477;-70
2024/03/15 02:18:11;;;;;;;10.47;4.20;;;9.30;99.90;;;;;;5049862;28;20501;-72
2024/03/15 02:20:40;;;;;;;9.60;4.43;;;9.20;99.90;;;;;;5051998;28;20470;-70
2024/03/15 02:23:08;;;;;;;10.40;4.67;;;9.40;99.90;;;;;;5046379;28;20510;-70
2024/03/15 02:25:36;;;;;;;8.70;4.40;;;9.50;99.90;;;;;;5049496;28;20519;-72
2024/03/15 02:28:06;;;;;;;11.30;4.47;;;9.50;99.90;;;;;;5051374;28;20474;-70
2024/03/15 02:30:34;;;;;;;9.20;5.00;;;9.40;99.90;;;;;;5081175;28;20486;-68
2024/03/15 02:33:03;;;;;;;9.73;4.23;;;9.50;99.90;;;;;;5051113;28;21069;-71
2024/03/15 02:35:32;;;;;;;9.73;4.20;;;9.50;99.90;;;;;;5052332;28;20450;-70
2024/03/15 02:38:01;;;;;;;10.10;3.90;;;9.30;99.90;;;;;;5061086;28;20481;-70
2024/03/15 02:40:29;;;;;;;9.17;4.47;;;9.20;99.90;;;;;;5080234;28;20474;-68
2024/03/15 02:42:57;;;;;;;9.83;4.60;;;9.20;99.90;;;;;;5050819;28;20480;-70
2024/03/15 02:45:26;;;;;;;9.23;4.00;;;9.10;99.90;;;;;;5050543;28;20605;-70
2024/03/15 02:47:54;;;;;;;9.63;4.73;;;9.00;99.90;;;;;;5052727;28;20990;-71
2024/03/15 02:50:22;;;;;;;10.30;5.00;;;9.00;99.90;;;;;;5051388;28;20845;-71
2024/03/15 02:52:50;;;;;;;11.63;4.97;;;9.00;99.90;;;;;;5048346;28;20553;-69
2024/03/15 02:55:18;;;;;;;12.77;5.47;;;8.90;99.90;;;;;;5049714;28;20855;-70
2024/03/15 02:57:46;;;;;;;9.50;4.50;;;9.00;99.90;;;;;;5051360;28;20470;-70
2024/03/15 03:00:15;;;;;;;10.80;4.70;;;8.90;99.90;;;;;;5049528;28;20539;-70
2024/03/15 03:02:43;;;;;;;11.70;5.00;;;9.00;99.90;;;;;;5045217;28;21168;-71
2024/03/15 03:05:12;;;;;;;11.90;5.17;;;8.80;99.90;;;;;;5061564;28;20482;-70
2024/03/15 03:07:40;;;;;;;10.90;5.50;;;8.80;99.90;;;;;;5050804;28;21960;-69
2024/03/15 03:10:08;;;;;;;11.00;5.23;;;8.80;99.90;;;;;;5063295;28;20474;-69
2024/03/15 03:12:37;;;;;;;12.60;4.90;;;8.90;99.90;;;;;;5049141;28;20482;-70
2024/03/15 03:15:06;;;;;;;11.30;4.97;;;8.80;99.90;;;;;;5047204;28;20475;-69
2024/03/15 03:17:34;;;;;;;10.90;4.67;;;8.80;99.90;;;;;;5050536;28;20472;-70
2024/03/15 03:20:11;;;;;;;11.33;5.30;;;8.80;99.90;;;;;;5045102;28;20451;-69
2024/03/15 03:22:39;;;;;;;13.33;6.00;;;8.80;99.90;;;;;;5044075;28;20458;-70
2024/03/15 03:25:09;;;;;;;11.97;4.60;;;9.00;99.90;;;;;;5055228;28;20548;-69
2024/03/15 03:27:37;;;;;;;11.10;4.77;;;9.00;99.90;;;;;;5048683;28;20458;-70
2024/03/15 03:30:06;;;;;;;9.47;4.37;;;9.10;99.90;;;;;;5049811;28;21250;-71
2024/03/15 03:32:36;;;;;;;10.50;5.07;;;9.10;99.90;;;;;;5046603;28;20542;-70
2024/03/15 03:35:05;;;;;;;11.63;5.30;;;9.10;99.90;;;;;;5050484;28;20459;-70
2024/03/15 03:37:33;;;;;;;13.37;5.53;;;9.10;99.90;;;;;;5050932;28;20527;-69
2024/03/15 03:40:01;;;;;;;10.17;5.43;;;9.00;99.90;;;;;;5048056;28;20447;-70
2024/03/15 03:42:29;;;;;;;13.07;6.03;;;9.00;99.90;;;;;;5047679;28;20556;-70
2024/03/15 03:44:58;;;;;;;10.73;5.30;;;8.90;99.90;;;;;;5051299;28;20504;-70
2024/03/15 03:47:26;;;;;;;11.20;5.67;;;8.90;99.90;;;;;;5047842;28;20562;-70
2024/03/15 03:49:54;;;;;;;10.90;5.43;;;9.10;99.90;;;;;;5050825;28;20960;-70
2024/03/15 03:52:22;;;;;;;10.10;5.10;;;9.20;99.90;;;;;;5043514;28;20483;-71
2024/03/15 03:54:50;;;;;;;10.60;5.40;;;9.00;99.90;;;;;;5049274;28;20520;-70
2024/03/15 03:57:22;;;;;;;9.73;5.23;;;9.00;99.90;;;;;;5059380;28;20482;-70
2024/03/15 04:00:13;;;;;;;11.90;4.57;;;9.10;99.90;;;;;;5052487;28;20485;-69
2024/03/15 04:02:44;;;;;;;11.33;5.20;;;9.20;99.90;;;;;;5047159;28;20851;-69
2024/03/15 04:05:14;;;;;;;11.10;5.10;;;9.20;99.90;;;;;;5047049;28;20486;-69
2024/03/15 04:07:44;;;;;;;11.10;4.90;;;9.20;99.90;;;;;;5078660;28;20485;-69
2024/03/15 04:10:12;;;;;;;10.17;5.00;;;9.30;99.90;;;;;;5047630;28;20543;-69
2024/03/15 04:12:42;;;;;;;11.40;5.53;;;9.30;99.90;;;;;;5064057;28;20899;-69
2024/03/15 04:15:11;;;;;;;12.07;5.00;;;9.20;99.90;;;;;;5049880;28;20596;-70
2024/03/15 04:17:57;;;;;;;11.23;5.70;;;9.30;99.90;;;;;;5050491;28;20442;-69
2024/03/15 04:20:26;;;;;;;10.23;4.53;;;9.40;99.90;;;;;;5050075;28;20478;-70
2024/03/15 04:22:55;;;;;;;10.20;4.70;;;9.40;99.90;;;;;;5066033;28;20486;-70
2024/03/15 04:25:25;;;;;;;9.77;4.73;;;9.50;99.90;;;;;;5047266;28;20486;-70
2024/03/15 04:27:55;;;;;;;10.70;5.10;;;9.40;99.90;;;;;;5048948;28;20470;-71
2024/03/15 04:30:23;;;;;;;9.00;4.43;;;9.50;99.90;;;;;;5046982;28;20697;-71
2024/03/15 04:32:53;;;;;;;11.47;4.60;;;9.50;99.90;;;;;;5049111;28;20465;-70
2024/03/15 04:35:22;;;;;;;10.83;4.97;;;9.50;99.90;;;;;;5049959;28;20457;-71
2024/03/15 04:37:51;;;;;;;10.83;4.70;;;9.40;99.90;;;;;;5050013;28;20480;-70
2024/03/15 04:40:19;;;;;;;10.73;4.27;;;9.40;99.90;;;;;;5050002;28;20470;-70
2024/03/15 04:42:47;;;;;;;11.03;4.80;;;9.40;99.90;;;;;;5047840;28;20959;-70
2024/03/15 04:45:17;;;;;;;13.00;4.87;;;9.50;99.90;;;;;;5046806;28;20483;-71
2024/03/15 04:47:45;;;;;;;12.87;4.87;;;9.60;99.90;;;;;;5050439;28;20438;-70
2024/03/15 04:50:15;;;;;;;11.57;4.70;;;9.60;99.90;;;;;;5049380;28;20503;-72
2024/03/15 04:52:43;;;;;;;9.67;4.50;;;9.60;99.90;;;;;;5073943;28;20443;-72
2024/03/15 04:55:13;;;;;;;11.03;5.27;;;9.60;99.90;;;;;;5047897;28;20482;-71
2024/03/15 04:57:42;;;;;;;10.13;5.00;;;9.50;99.90;;;;;;5072806;28;20561;-73
2024/03/15 05:00:17;;;;;;;10.50;4.90;;;9.40;99.90;;;;;;5048611;28;20506;-71
2024/03/15 05:02:47;;;;;;;9.83;4.50;;;9.50;99.90;;;;;;5048370;28;20973;-72
2024/03/15 05:05:16;;;;;;;10.47;4.40;;;9.40;99.90;;;;;;5048981;28;20463;-72
2024/03/15 05:07:46;;;;;;;11.83;4.57;;;9.30;99.90;;;;;;5048383;28;20477;-69
2024/03/15 05:10:16;;;;;;;9.30;4.67;;;9.40;99.90;;;;;;5044868;28;20960;-70
2024/03/15 05:12:45;;;;;;;9.80;4.30;;;9.30;99.90;;;;;;5042438;28;20471;-72
2024/03/15 05:15:14;;;;;;;9.33;4.17;;;9.40;99.90;;;;;;5058235;28;21088;-71
2024/03/15 05:17:42;;;;;;;9.30;4.13;;;9.40;99.90;;;;;;5045044;28;20451;-70
2024/03/15 05:20:12;;;;;;;9.93;4.63;;;9.30;99.90;;;;;;5047713;28;20854;-71
2024/03/15 05:22:43;;;;;;;11.77;5.23;;;9.30;99.90;;;;;;5041836;28;20525;-71
2024/03/15 05:25:14;;;;;;;10.50;5.03;;;9.20;99.90;;;;;;5055769;28;20494;-70
2024/03/15 05:27:44;;;;;;;10.30;5.37;;;9.20;99.90;;;;;;5061858;28;20471;-70
2024/03/15 05:30:14;;;;;;;11.70;5.63;;;9.20;99.90;;;;;;5065950;28;20991;-68
2024/03/15 05:32:42;;;;;;;13.10;4.90;;;9.30;99.90;;;;;;5046337;28;20470;-72
2024/03/15 05:35:10;;;;;;;10.90;5.43;;;9.20;99.90;;;;;;5049336;28;20845;-70
2024/03/15 05:37:38;;;;;;;11.00;5.27;;;9.10;99.90;;;;;;5048736;28;21134;-71
2024/03/15 05:40:08;;;;;;;12.90;6.37;;;9.10;99.90;;;;;;5048098;28;20523;-70
2024/03/15 05:42:36;;;;;;;8.87;4.00;;;9.10;99.90;;;;;;5043125;28;20458;-67
2024/03/15 05:45:05;;;;;;;12.27;4.93;;;9.20;99.90;;;;;;5047744;28;20466;-68
2024/03/15 05:47:33;;;;;;;10.00;4.90;;;9.20;99.90;;;;;;5044867;28;21165;-71
2024/03/15 05:50:04;;;;;;;15.97;5.50;;;9.30;99.90;;;;;;5048202;28;20446;-71
2024/03/15 05:52:33;;;;;;;11.60;5.63;;;9.30;99.90;;;;;;5046904;28;20519;-69
2024/03/15 05:55:01;;;;;;;16.63;6.13;;;9.30;99.90;;;;;;5046226;28;20569;-70
2024/03/15 05:57:29;;;;;;;13.70;7.70;;;9.30;99.90;;;;;;5044176;28;20504;-69
2024/03/15 06:00:02;;;;;;;12.20;6.17;;;9.30;99.90;;;;;;5047927;28;20457;-69
2024/03/15 06:02:30;;;;;;;13.33;6.50;;;9.20;99.90;;;;;;5046977;28;21123;-70
2024/03/15 06:04:59;;;;;;;13.20;6.67;;;9.20;99.90;;;;;;5047339;28;20466;-72
2024/03/15 06:07:27;;;;;;;12.07;6.40;;;9.20;99.90;;;;;;5046880;28;20577;-72
2024/03/15 06:09:55;;;;;;;10.83;5.50;;;9.20;99.90;;;;;;5048195;28;20455;-70
2024/03/15 06:12:27;;;;;;;12.10;6.40;;;9.20;99.90;;;;;;5045065;28;20484;-71
2024/03/15 06:14:55;;;;;;;13.70;6.53;;;9.20;99.90;;;;;;5048429;28;20469;-71
2024/03/15 06:17:24;;;;;;;12.83;5.53;;;9.20;99.90;;;;;;5047709;28;20802;-70
2024/03/15 06:19:54;;;;;;;12.90;6.03;;;9.20;99.90;;;;;;5061259;28;20507;-70
2024/03/15 06:22:23;;;;;;;11.80;6.00;;;9.20;99.90;;;;;;5062348;28;20468;-70
2024/03/15 06:24:54;;;;;;;12.27;5.43;;;9.30;99.90;;;;;;5047525;28;20902;-71
2024/03/15 06:27:22;;;;;;;9.33;5.13;;;9.20;99.90;;;;;;5048054;28;20482;-71
2024/03/15 06:29:52;;;;;;;14.67;6.20;;;9.30;99.90;;;;;;5047985;28;21095;-70
2024/03/15 06:32:26;;;;;;;11.50;5.33;;;9.20;99.90;;;;;;5046710;28;20537;-72
2024/03/15 06:34:55;;;;;;;11.13;5.60;;;9.20;99.90;;;;;;5048647;28;20491;-71
2024/03/15 06:37:24;;;;;;;12.03;5.43;;;9.10;99.90;;;;;;5048019;28;20468;-70
2024/03/15 06:40:03;;;;;;;10.83;5.80;;;9.20;99.90;;;;;;5048143;28;20458;-70
2024/03/15 06:42:59;;;;;;;10.60;4.77;;;9.20;99.90;;;;;;5048416;28;20446;-70
2024/03/15 06:45:44;;;;;;;12.67;5.03;;;9.20;99.90;;;;;;5060532;28;20457;-70
2024/03/15 06:48:17;;;;;;;11.03;4.70;;;9.20;99.90;;;;;;5058957;28;20478;-70
2024/03/15 06:50:50;;;;;;;10.20;4.90;;;9.30;99.90;;;;;;5048350;28;20474;-67
2024/03/15 06:53:18;;;;;;;11.20;5.03;;;9.30;99.90;;;;;;5047683;28;20442;-67
2024/03/15 06:55:47;;;;;;;10.57;4.93;;;9.30;99.90;;;;;;5047506;28;20471;-70
2024/03/15 06:58:15;;;;;;;12.13;5.10;;;9.30;99.90;;;;;;5050137;28;20665;-69
2024/03/15 07:00:51;;;;;;;12.63;6.83;;;9.40;99.90;;;;;;5051954;28;20466;-70
2024/03/15 07:03:19;;;;;;;10.20;5.30;;;9.40;99.90;;;;;;5052048;28;20443;-69
2024/03/15 07:05:48;;;;;;;12.73;4.40;;;9.40;99.90;;;;;;5066152;28;20454;-69
2024/03/15 07:08:16;;;;;;;10.00;4.30;;;9.50;99.90;;;;;;5049167;28;20474;-69
2024/03/15 07:10:44;;;;;;;11.20;4.77;;;9.60;99.90;;;;;;5052290;28;20506;-69
2024/03/15 07:13:13;;;;;;;9.90;4.80;;;9.90;99.90;;;;;;5050416;28;21250;-70
2024/03/15 07:15:41;;;;;;;12.97;4.73;;;10.00;99.90;;;;;;5051177;28;21082;-68
2024/03/15 07:18:09;;;;;;;11.93;4.77;;;10.10;99.90;;;;;;5051416;28;20869;-69
2024/03/15 07:20:37;;;;;;;11.10;3.93;;;10.20;99.90;;;;;;5050590;28;20502;-68
2024/03/15 07:23:06;;;;;;;9.87;3.80;;;10.30;99.90;;;;;;5049316;28;20440;-68
2024/03/15 07:25:36;;;;;;;10.03;4.30;;;10.40;99.90;;;;;;5050774;28;21040;-69
2024/03/15 07:28:05;;;;;;;11.93;3.70;;;10.50;99.90;;;;;;5050646;28;20478;-70
2024/03/15 07:30:34;;;;;;;8.40;4.10;;;10.70;99.90;;;;;;5050660;28;20552;-69
2024/03/15 07:33:03;;;;;;;11.90;3.97;;;10.80;99.90;;;;;;5049455;28;20970;-68
2024/03/15 07:35:31;;;;;;;11.50;3.30;;;11.10;99.90;;;;;;5050730;28;20464;-68
2024/03/15 07:38:00;;;;;;;10.60;3.80;;;11.20;99.90;;;;;;5050708;28;20444;-68
2024/03/15 07:40:28;;;;;;;9.00;2.80;;;11.40;99.90;;;;;;5049213;28;20474;-68
2024/03/15 07:42:56;;;;;;;9.20;3.00;;;11.70;99.90;;;;;;5050867;28;20602;-71
2024/03/15 07:45:25;;;;;;;8.97;3.73;;;11.70;99.90;;;;;;5052163;28;20449;-72
2024/03/15 07:47:53;;;;;;;10.43;4.17;;;11.80;99.90;;;;;;5051679;28;20939;-70
2024/03/15 07:50:21;;;;;;;11.10;3.27;;;11.90;99.90;;;;;;5050546;28;20520;-70
2024/03/15 07:52:50;;;;;;;9.20;2.83;;;12.10;99.90;;;;;;5047208;28;20961;-70
2024/03/15 07:55:20;;;;;;;10.00;2.60;;;12.30;99.90;;;;;;5050538;28;20843;-69
2024/03/15 07:57:48;;;;;;;8.03;2.60;;;12.50;99.90;;;;;;5048985;28;20474;-68
2024/03/15 08:00:18;;;;;;;7.63;2.70;;;12.70;99.90;;;;;;5049794;28;20580;-70
2024/03/15 08:02:47;;;;;;;7.70;2.40;;;12.70;99.90;;;;;;5048770;28;21102;-70
2024/03/15 08:05:16;;;;;;;7.00;2.40;;;12.80;99.90;;;;;;5048442;28;20546;-71
2024/03/15 08:07:45;;;;;;;7.00;2.57;;;12.90;99.90;;;;;;5049780;28;20487;-70
2024/03/15 08:10:14;;;;;;;10.07;2.67;;;13.10;99.90;;;;;;5050488;28;21134;-71
2024/03/15 08:12:43;;;;;;;7.30;2.50;;;13.20;99.90;;;;;;5048453;28;20450;-68
2024/03/15 08:15:13;;;;;;;9.00;2.90;;;13.30;99.90;;;;;;5049483;28;20454;-69
2024/03/15 08:17:43;;;;;;;7.87;2.30;;;13.50;99.90;;;;;;5048636;28;20495;-68
2024/03/15 08:20:12;;;;;;;7.17;2.17;;;13.70;99.90;;;;;;5051287;28;20509;-69
2024/03/15 08:22:40;;;;;;;7.17;2.27;;;13.80;99.90;;;;;;5050346;28;20451;-68
2024/03/15 08:25:09;;;;;;;7.97;2.80;;;14.00;99.90;;;;;;5051531;28;20917;-69
2024/03/15 08:27:39;;;;;;;8.07;2.40;;;14.10;99.90;;;;;;5051447;28;20569;-68
2024/03/15 08:30:12;;;;;;;11.13;3.30;;;14.00;99.90;;;;;;5051519;28;20444;-69
2024/03/15 08:32:41;;;;;;;8.70;3.00;;;14.10;99.90;;;;;;5050563;28;21020;-68
2024/03/15 08:35:13;;;;;;;8.43;2.97;;;14.40;99.90;;;;;;5047716;28;20807;-68
2024/03/15 08:37:43;;;;;;;8.77;3.10;;;14.50;99.90;;;;;;5051907;28;20441;-69
2024/03/15 08:40:13;;;;;;;9.00;3.23;;;14.60;99.90;;;;;;5051461;28;20468;-68
2024/03/15 08:42:41;;;;;;;11.00;3.30;;;14.60;99.90;;;;;;5050185;28;20916;-69
2024/03/15 08:45:09;;;;;;;10.10;3.37;;;14.70;99.90;;;;;;5051495;28;20439;-69
2024/03/15 08:47:39;;;;;;;8.40;3.00;;;14.90;99.90;;;;;;5051093;28;20485;-69
2024/03/15 08:50:32;;;;;;;9.17;3.23;;;15.10;99.90;;;;;;5053961;28;20567;-68
2024/03/15 08:53:03;;;;;;;9.00;3.10;;;15.20;99.90;;;;;;5050010;28;20470;-69
2024/03/15 08:55:33;;;;;;;13.63;3.70;;;15.50;99.90;;;;;;5051531;28;20455;-69
2024/03/15 08:58:02;;;;;;;8.37;3.20;;;15.60;99.90;;;;;;5043258;28;20461;-68
2024/03/15 09:00:30;;;;;;;8.80;2.73;;;15.90;99.90;;;;;;5050739;28;20504;-68
2024/03/15 09:02:58;;;;;;;8.50;2.63;;;16.30;99.90;;;;;;5049051;28;20451;-69
2024/03/15 09:05:27;;;;;;;10.60;2.97;;;16.50;99.90;;;;;;5050227;28;20476;-69
2024/03/15 09:07:55;;;;;;;11.13;2.50;;;16.80;99.90;;;;;;5082996;28;20566;-69
2024/03/15 09:10:23;;;;;;;7.80;1.70;;;17.10;99.90;;;;;;5050907;28;20681;-68
2024/03/15 09:12:51;;;;;;;7.20;2.23;;;17.30;98.50;;;;;;5049327;28;20447;-69
2024/03/15 09:15:22;;;;;;;7.40;2.40;;;17.50;97.50;;;;;;5050531;28;20445;-68
2024/03/15 09:17:51;;;;;;;6.83;1.63;;;17.60;96.20;;;;;;5050800;28;20458;-69
2024/03/15 09:20:20;;;;;;;7.20;1.80;;;18.00;95.50;;;;;;5050022;28;20467;-70
2024/03/15 09:22:49;;;;;;;7.50;1.70;;;18.30;94.30;;;;;;5047091;28;21092;-70
2024/03/15 09:25:19;;;;;;;7.20;1.60;;;18.50;93.00;;;;;;5050811;28;20889;-69
2024/03/15 09:27:48;;;;;;;8.53;1.70;;;19.00;91.10;;;;;;5050530;28;20455;-69
2024/03/15 09:30:17;;;;;;;7.50;1.70;;;19.20;90.30;;;;;;5050528;28;20469;-70
2024/03/15 09:32:48;;;;;;;6.97;1.40;;;19.00;89.50;;;;;;5049007;28;20839;-69
2024/03/15 09:35:15;;;;;;;7.87;1.30;;;18.80;89.10;;;;;;5050912;28;20481;-69
2024/03/15 09:37:48;;;;;;;6.53;1.20;;;18.20;88.80;;;;;;5050074;28;20463;-68
2024/03/15 09:40:16;;;;;;;6.60;1.60;;;18.20;90.20;;;;;;5051140;28;20473;-69
2024/03/15 09:42:44;;;;;;;7.63;1.63;;;18.60;90.00;;;;;;5048842;28;20459;-69
2024/03/15 09:45:16;;;;;;;7.93;1.50;;;19.00;89.50;;;;;;5050051;28;20970;-69
2024/03/15 09:47:45;;;;;;;6.50;1.70;;;19.10;87.80;;;;;;5050902;28;20450;-69
2024/03/15 09:50:16;;;;;;;7.40;1.47;;;19.20;88.10;;;;;;5049850;28;20478;-69
2024/03/15 09:52:44;;;;;;;7.87;1.70;;;19.00;86.30;;;;;;5047893;28;20471;-69
2024/03/15 09:55:13;;;;;;;6.87;1.20;;;18.60;88.50;;;;;;5049008;28;20542;-70
2024/03/15 09:57:43;;;;;;;20.33;12.03;;;18.10;90.90;;;;;;5048920;28;20539;-70
2024/03/15 10:00:13;;;;;;;8.57;2.93;;;17.90;91.90;;;;;;5049033;28;20443;-69
2024/03/15 10:02:44;;;;;;;8.40;2.63;;;17.70;92.40;;;;;;5047693;28;20450;-69
2024/03/15 10:05:12;;;;;;;10.90;2.50;;;17.50;92.40;;;;;;5049209;28;20458;-68
2024/03/15 10:07:40;;;;;;;6.50;1.40;;;17.50;93.50;;;;;;5048948;28;20450;-69
2024/03/15 10:10:10;;;;;;;8.10;1.27;;;17.30;93.80;;;;;;5048263;28;20482;-70
2024/03/15 10:12:39;;;;;;;6.70;1.10;;;17.20;93.90;;;;;;5047576;28;20443;-68
2024/03/15 10:15:10;;;;;;;8.10;1.33;;;17.00;93.20;;;;;;5049288;28;21099;-69
2024/03/15 10:17:39;;;;;;;6.00;1.00;;;16.80;94.70;;;;;;5048820;28;20526;-69
2024/03/15 10:20:10;;;;;;;6.40;1.00;;;16.60;95.40;;;;;;5047827;28;20446;-69
2024/03/15 10:22:40;;;;;;;8.60;1.17;;;16.40;96.40;;;;;;5048519;28;20449;-70
2024/03/15 10:25:10;;;;;;;6.40;1.13;;;16.30;97.20;;;;;;5045970;28;20450;-69
2024/03/15 10:27:38;;;;;;;10.50;1.40;;;16.30;98.20;;;;;;5049828;28;21235;-69
2024/03/15 10:30:09;;;;;;;6.20;0.90;;;16.30;99.00;;;;;;5062754;28;20488;-67
2024/03/15 10:32:37;;;;;;;9.93;3.40;;;16.20;99.90;;;;;;5049991;28;20566;-69
2024/03/15 10:35:06;;;;;;;6.97;1.17;;;16.00;99.90;;;;;;5041855;28;20440;-69
2024/03/15 10:37:34;;;;;;;5.77;0.93;;;15.70;99.90;;;;;;5052815;28;20445;-70
2024/03/15 10:40:05;;;;;;;6.70;1.10;;;15.60;99.90;;;;;;5052188;28;20463;-70
2024/03/15 10:42:33;;;;;;;6.83;0.87;;;15.50;99.90;;;;;;5079831;28;21163;-69
2024/03/15 10:45:01;;;;;;;6.13;1.13;;;15.40;99.90;;;;;;5068613;28;20435;-69
2024/03/15 10:47:29;;;;;;;5.60;1.00;;;15.40;99.90;;;;;;5052324;28;20474;-70
2024/03/15 10:49:58;;;;;;;6.20;0.90;;;15.50;99.90;;;;;;5051824;28;20486;-70
2024/03/15 10:52:26;;;;;;;5.70;0.83;;;15.60;99.90;;;;;;5050778;28;20534;-69
2024/03/15 10:54:54;;;;;;;9.30;0.90;;;15.70;99.90;;;;;;5052189;28;20868;-70
2024/03/15 10:57:22;;;;;;;5.57;0.80;;;15.90;99.90;;;;;;5048584;28;21259;-69
2024/03/15 10:59:51;;;;;;;5.80;1.00;;;16.00;99.90;;;;;;5052283;28;20466;-69
2024/03/15 11:02:19;;;;;;;5.40;0.60;;;16.10;99.90;;;;;;5051176;28;20932;-68
2024/03/15 11:04:49;;;;;;;8.30;1.73;;;16.10;99.90;;;;;;5051293;28;20940;-68
2024/03/15 11:07:20;;;;;;;6.77;0.90;;;16.10;99.90;;;;;;5052936;28;20473;-69
2024/03/15 11:09:48;;;;;;;6.07;1.00;;;16.00;99.90;;;;;;5052099;28;20565;-69
2024/03/15 11:12:17;;;;;;;6.40;0.80;;;16.10;99.90;;;;;;5050494;28;20484;-69
2024/03/15 11:14:45;;;;;;;6.13;0.90;;;16.10;99.90;;;;;;5052191;28;20980;-68
2024/03/15 11:17:17;;;;;;;6.20;1.10;;;16.20;99.90;;;;;;5052177;28;20537;-70
2024/03/15 11:19:49;;;;;;;6.23;1.00;;;16.30;99.70;;;;;;5052618;28;20436;-71
2024/03/15 11:22:19;;;;;;;6.13;1.20;;;16.40;98.90;;;;;;5050639;28;20609;-68
2024/03/15 11:24:50;;;;;;;6.33;1.00;;;16.50;96.60;;;;;;5051680;28;20460;-69
2024/03/15 11:27:18;;;;;;;6.40;1.10;;;16.60;96.60;;;;;;5052195;28;20518;-68
2024/03/15 11:29:48;;;;;;;5.90;1.03;;;16.60;95.80;;;;;;5050315;28;20564;-69
2024/03/15 11:32:16;;;;;;;7.07;1.20;;;16.70;95.80;;;;;;5049888;28;20887;-70
2024/03/15 11:34:45;;;;;;;5.90;1.00;;;16.90;95.40;;;;;;5050577;28;20450;-69
2024/03/15 11:37:13;;;;;;;7.17;1.50;;;16.90;94.60;;;;;;5050639;28;20450;-70
2024/03/15 11:39:43;;;;;;;6.83;1.33;;;16.90;94.90;;;;;;5065360;28;20446;-70
2024/03/15 11:42:11;;;;;;;5.90;1.10;;;17.00;95.30;;;;;;5047175;28;20470;-70
2024/03/15 11:44:39;;;;;;;6.20;1.13;;;17.30;95.00;;;;;;5067345;28;20505;-69
2024/03/15 11:47:08;;;;;;;6.20;1.27;;;17.30;93.80;;;;;;5067630;28;20451;-69
2024/03/15 11:49:36;;;;;;;5.77;1.23;;;17.20;93.50;;;;;;5067706;28;20536;-69
2024/03/15 11:52:04;;;;;;;6.07;1.13;;;17.10;93.80;;;;;;5066205;28;20455;-70
2024/03/15 11:54:32;;;;;;;6.93;1.80;;;17.00;93.60;;;;;;5046778;28;20483;-69
2024/03/15 11:57:02;;;;;;;6.63;1.70;;;17.00;93.40;;;;;;5067481;28;20452;-69
2024/03/15 11:59:31;;;;;;;6.10;1.40;;;17.00;93.80;;;;;;5051429;28;20447;-70
2024/03/15 12:02:01;;;;;;;6.00;1.20;;;17.10;94.00;;;;;;5049828;28;20459;-69
2024/03/15 12:04:32;;;;;;;5.90;1.30;;;17.30;93.40;;;;;;5051289;28;20447;-70
2024/03/15 12:07:00;;;;;;;6.93;1.30;;;17.50;93.40;;;;;;5066897;28;20443;-69
2024/03/15 12:09:29;;;;;;;7.27;1.80;;;17.80;92.80;;;;;;5051129;28;20522;-69
2024/03/15 12:11:57;;;;;;;6.23;1.00;;;18.00;92.40;;;;;;5066077;28;20537;-69
2024/03/15 12:14:25;;;;;;;6.00;1.30;;;18.00;90.50;;;;;;5051463;28;20570;-68
2024/03/15 12:16:53;;;;;;;6.20;1.20;;;18.20;90.30;;;;;;5066235;28;20483;-68
2024/03/15 12:19:22;;;;;;;6.10;1.17;;;18.60;88.90;;;;;;5042452;28;20480;-69
2024/03/15 12:21:50;;;;;;;6.30;1.47;;;18.70;86.20;;;;;;5049383;28;20463;-68
2024/03/15 12:24:18;;;;;;;6.70;1.20;;;18.40;86.50;;;;;;5048243;28;20448;-69
2024/03/15 12:26:47;;;;;;;6.10;1.33;;;18.20;87.50;;;;;;5050895;28;20867;-70
2024/03/15 12:29:16;;;;;;;6.70;1.30;;;18.20;86.40;;;;;;5049207;28;20502;-68
2024/03/15 12:31:44;;;;;;;6.40;1.20;;;18.00;86.40;;;;;;5045615;28;20483;-68
2024/03/15 12:34:12;;;;;;;6.87;1.00;;;17.90;87.10;;;;;;5045413;28;21060;-70
2024/03/15 12:36:40;;;;;;;6.87;1.10;;;18.00;85.80;;;;;;5049405;28;20447;-71
2024/03/15 12:39:11;;;;;;;5.93;1.10;;;18.10;85.10;;;;;;5063488;28;20448;-71
2024/03/15 12:41:41;;;;;;;6.03;1.20;;;18.00;85.50;;;;;;5046878;28;20514;-70
2024/03/15 12:44:09;;;;;;;6.10;1.00;;;18.90;84.80;;;;;;5059369;28;20466;-69
2024/03/15 12:46:37;;;;;;;7.13;1.43;;;19.80;82.20;;;;;;5046355;28;20448;-69
2024/03/15 12:49:05;;;;;;;7.47;1.70;;;20.80;80.00;;;;;;5064580;28;20974;-70
2024/03/15 12:51:33;;;;;;;6.17;1.10;;;21.00;76.40;;;;;;5047746;28;20544;-70
2024/03/15 12:54:02;;;;;;;6.60;1.67;;;22.00;76.00;;;;;;5065274;28;20462;-70
2024/03/15 12:56:31;;;;;;;8.50;1.20;;;22.80;70.90;;;;;;5055786;28;20524;-69
2024/03/15 12:58:59;;;;;;;6.70;1.30;;;22.70;66.20;;;;;;5066517;28;20478;-68